createdAt,value
2023-01-28T00:10:58.708Z,0.9
2023-01-28T00:22:58.683Z,0.8
2023-01-28T00:34:58.624Z,0.8
2023-01-28T00:46:58.701Z,0.8
2023-01-28T00:58:58.619Z,0.7
2023-01-28T01:10:58.727Z,0.7
2023-01-28T01:22:58.726Z,0.7
2023-01-28T01:34:58.721Z,0.7
2023-01-28T01:46:58.620Z,0.5
2023-01-28T01:58:58.676Z,0.4
2023-01-28T02:10:58.716Z,0.5
2023-01-28T02:22:58.730Z,0.4
2023-01-28T02:34:58.618Z,0.3
2023-01-28T02:46:58.630Z,0.2
2023-01-28T02:58:58.713Z,0.1
2023-01-28T03:10:58.721Z,0.1
2023-01-28T03:22:58.748Z,0.1
2023-01-28T03:34:58.623Z,0.1
2023-01-28T03:46:58.625Z,-0.0
2023-01-28T03:58:58.625Z,0.0
2023-01-28T04:10:58.724Z,-0.0
2023-01-28T04:22:58.715Z,-0.1
2023-01-28T04:34:58.616Z,-0.1
2023-01-28T04:46:58.729Z,-0.2
2023-01-28T04:58:58.712Z,-0.2
2023-01-28T05:10:58.777Z,-0.3
2023-01-28T05:22:58.622Z,-0.3
2023-01-28T05:34:58.714Z,-0.4
2023-01-28T05:46:58.678Z,-0.4
2023-01-28T05:58:59.783Z,-0.4
2023-01-28T06:10:58.797Z,-0.4
2023-01-28T06:22:58.743Z,-0.4
2023-01-28T06:34:58.627Z,-0.5
2023-01-28T06:46:59.061Z,-0.5
2023-01-28T06:58:58.613Z,-0.4
2023-01-28T07:10:58.611Z,-0.5
2023-01-28T07:22:58.688Z,-0.6
2023-01-28T07:34:58.637Z,-0.6
2023-01-28T07:46:58.672Z,-0.6
2023-01-28T07:58:58.712Z,-0.5
2023-01-28T08:10:58.636Z,-0.4
2023-01-28T08:22:58.628Z,-0.4
2023-01-28T08:34:58.735Z,-0.4
2023-01-28T08:46:58.686Z,-0.3
2023-01-28T08:58:58.732Z,-0.3
2023-01-28T09:10:59.598Z,-0.3
2023-01-28T09:22:58.620Z,-0.2
2023-01-28T09:34:58.711Z,-0.1
2023-01-28T09:46:58.827Z,-0.0
2023-01-28T09:58:59.413Z,0.1
2023-01-28T10:10:58.733Z,0.3
2023-01-28T10:22:58.613Z,0.1
2023-01-28T10:34:58.621Z,0.2
2023-01-28T10:46:58.623Z,0.3
2023-01-28T10:58:58.786Z,0.2
2023-01-28T11:10:58.629Z,0.4
2023-01-28T11:22:58.623Z,0.3
2023-01-28T11:34:58.637Z,0.3
2023-01-28T11:46:58.742Z,0.6
2023-01-28T11:58:58.625Z,0.4
2023-01-28T12:10:58.627Z,0.3
2023-01-28T12:22:58.615Z,0.2
2023-01-28T12:34:58.733Z,0.0
2023-01-28T12:46:58.730Z,-0.1
2023-01-28T12:58:58.699Z,-0.2
2023-01-28T13:10:58.640Z,-0.2
2023-01-28T13:22:58.743Z,-0.3
2023-01-28T13:34:58.616Z,-0.4
2023-01-28T13:46:58.727Z,-0.4
2023-01-28T13:58:58.745Z,-0.7
2023-01-28T14:10:58.620Z,-0.7
2023-01-28T14:22:58.631Z,-0.7
2023-01-28T14:34:58.704Z,-0.7
2023-01-28T14:46:58.739Z,-0.8
2023-01-28T14:58:58.703Z,-0.7
2023-01-28T15:10:58.725Z,-0.8
2023-01-28T15:22:58.690Z,-0.9
2023-01-28T15:34:58.616Z,-0.9
2023-01-28T15:46:58.617Z,-1.0
2023-01-28T15:58:58.621Z,-1.1
2023-01-28T16:10:58.693Z,-1.2
2023-01-28T16:22:58.616Z,-1.3
2023-01-28T16:34:58.612Z,-1.5
2023-01-28T16:46:58.753Z,-1.6
2023-01-28T16:58:58.697Z,-1.9
2023-01-28T17:10:58.697Z,-1.7
2023-01-28T17:22:58.728Z,-1.6
2023-01-28T17:34:58.735Z,-1.6
2023-01-28T17:46:58.726Z,-1.6
2023-01-28T17:58:58.615Z,-1.5
2023-01-28T18:10:58.708Z,-1.4
2023-01-28T18:22:58.617Z,-1.5
2023-01-28T18:34:58.630Z,-1.5
2023-01-28T18:46:58.627Z,-1.5
2023-01-28T18:58:58.615Z,-1.5
2023-01-28T19:10:58.634Z,-1.6
2023-01-28T19:22:58.700Z,-1.6
2023-01-28T19:34:58.734Z,-1.6
2023-01-28T19:46:58.647Z,-1.7
2023-01-28T19:58:58.685Z,-1.7
2023-01-28T20:10:58.714Z,-1.7
2023-01-28T20:22:58.724Z,-1.9
2023-01-28T20:34:58.730Z,-1.9
2023-01-28T20:46:58.638Z,-1.9
2023-01-28T20:58:58.623Z,-2.1
2023-01-28T21:10:58.617Z,-2.2
2023-01-28T21:22:58.714Z,-2.3
2023-01-28T21:34:58.624Z,-2.4
2023-01-28T21:46:58.720Z,-2.5
2023-01-28T21:58:58.626Z,-2.5
2023-01-28T22:10:58.717Z,-2.5
2023-01-28T22:22:58.615Z,-2.4
2023-01-28T22:34:58.624Z,-2.5
2023-01-28T22:46:58.625Z,-2.6
2023-01-28T22:58:58.716Z,-2.8
2023-01-28T23:10:58.679Z,-2.8
2023-01-28T23:22:58.661Z,-2.7
2023-01-28T23:34:58.737Z,-2.5
2023-01-28T23:46:58.741Z,-2.6
2023-01-28T23:58:58.732Z,-2.5
